Time;durP1;ratioP1;P1;durP2;ratioP2;P2;SDS_P1;SDS_P2;PMS_P1;PMS_P2;Temp;Humidity;BMP_temperature;BMP_pressure;BME280_temperature;BME280_humidity;BME280_pressure;Samples;Min_cycle;Max_cycle;Signal;HPM_P1;HPM_P2
2024/01/25 00:00:50;;;;;;;10.00;2.80;;;;;;;6.46;88.74;99251.34;129928;1269;106874;-83
2024/01/25 00:04:16;;;;;;;12.00;3.00;;;;;;;6.46;88.75;99250.98;129942;1270;109924;-83
2024/01/25 00:07:21;;;;;;;7.80;2.10;;;;;;;6.42;89.38;99257.14;130190;1267;108682;-83
2024/01/25 00:10:27;;;;;;;10.10;3.00;;;;;;;6.33;89.39;99250.13;130029;1266;107767;-83
2024/01/25 00:13:33;;;;;;;12.50;2.80;;;;;;;6.25;89.40;99248.53;130048;1266;108725;-83
2024/01/25 00:16:42;;;;;;;7.70;2.30;;;;;;;6.23;89.79;99254.96;129996;1265;107644;-82
2024/01/25 00:19:48;;;;;;;10.70;2.60;;;;;;;6.18;89.90;99254.98;130114;1265;107430;-82
2024/01/25 00:22:54;;;;;;;8.50;2.50;;;;;;;6.17;89.67;99254.01;130076;1268;106970;-82
2024/01/25 00:25:59;;;;;;;6.70;1.90;;;;;;;6.15;89.54;99257.34;130193;1267;107704;-82
2024/01/25 00:29:05;;;;;;;10.30;2.30;;;;;;;6.08;89.58;99250.23;130183;1265;108570;-83
2024/01/25 00:32:11;;;;;;;10.10;2.40;;;;;;;6.07;89.66;99257.91;130186;1265;106516;-83
2024/01/25 00:35:18;;;;;;;8.50;2.20;;;;;;;6.07;89.26;99257.54;130179;1267;107669;-84
2024/01/25 00:38:26;;;;;;;10.30;1.80;;;;;;;6.07;88.79;99261.39;130195;1267;107564;-84
2024/01/25 00:41:35;;;;;;;8.30;2.20;;;;;;;6.08;88.94;99263.84;130201;1267;107603;-83
2024/01/25 00:44:42;;;;;;;10.20;2.70;;;;;;;6.11;89.00;99262.30;130199;1267;107841;-84
2024/01/25 00:47:48;;;;;;;9.00;2.30;;;;;;;6.13;88.75;99264.45;130208;1267;108623;-83
2024/01/25 00:50:55;;;;;;;8.60;2.50;;;;;;;6.17;88.41;99261.39;130155;1266;108576;-83
2024/01/25 00:54:01;;;;;;;10.80;2.40;;;;;;;6.20;88.38;99261.45;130210;1266;105768;-81
2024/01/25 00:57:08;;;;;;;9.60;1.90;;;;;;;6.17;88.14;99258.21;130173;1268;107386;-81
2024/01/25 01:00:16;;;;;;;10.20;2.20;;;;;;;6.14;88.07;99260.08;130178;1267;108729;-83
2024/01/25 01:03:22;;;;;;;8.40;2.20;;;;;;;6.15;88.03;99262.46;130198;1267;108777;-82
2024/01/25 01:06:29;;;;;;;11.00;2.40;;;;;;;6.21;88.00;99256.27;130237;1265;107590;-84
2024/01/25 01:09:35;;;;;;;8.90;2.40;;;;;;;6.19;87.63;99255.02;130184;1265;107101;-84
2024/01/25 01:12:41;;;;;;;10.80;2.70;;;;;;;6.19;87.76;99254.00;130237;1268;107620;-84
2024/01/25 01:15:46;;;;;;;7.20;1.90;;;;;;;6.18;87.86;99259.91;130077;1266;108711;-83
2024/01/25 01:18:52;;;;;;;6.70;1.80;;;;;;;6.13;87.76;99256.52;130154;1267;109277;-83
2024/01/25 01:21:57;;;;;;;9.90;2.20;;;;;;;6.11;88.05;99248.35;130177;1267;108705;-82
2024/01/25 01:25:03;;;;;;;12.70;3.10;;;;;;;6.11;87.78;99244.48;130133;1265;108818;-84
2024/01/25 01:28:09;;;;;;;11.30;3.20;;;;;;;6.13;87.64;99237.81;130214;1268;108751;-83
2024/01/25 01:31:15;;;;;;;10.30;2.30;;;;;;;6.15;87.17;99251.17;130178;1266;107971;-82
2024/01/25 01:34:20;;;;;;;7.70;2.10;;;;;;;6.09;87.13;99249.23;130198;1266;108803;-82
2024/01/25 01:37:26;;;;;;;8.00;2.40;;;;;;;6.07;87.12;99241.29;130143;1267;106315;-82
2024/01/25 01:40:31;;;;;;;6.70;1.70;;;;;;;6.09;86.55;99237.90;130103;1265;108694;-82
2024/01/25 01:43:37;;;;;;;7.80;2.20;;;;;;;6.13;86.83;99244.16;130196;1278;108681;-82
2024/01/25 01:46:44;;;;;;;7.50;2.00;;;;;;;6.09;86.19;99252.45;130151;1265;107830;-81
2024/01/25 01:49:50;;;;;;;12.40;2.50;;;;;;;6.02;86.83;99252.78;130109;1267;108695;-84
2024/01/25 01:52:56;;;;;;;9.80;2.40;;;;;;;5.96;86.62;99242.61;130077;1267;108679;-82
2024/01/25 01:56:01;;;;;;;8.70;2.20;;;;;;;5.92;86.94;99246.88;130058;1268;108791;-82
2024/01/25 01:59:09;;;;;;;7.60;1.70;;;;;;;5.91;86.59;99268.09;130033;1267;108816;-82
2024/01/25 02:02:15;;;;;;;9.40;2.80;;;;;;;5.92;86.33;99265.69;130072;1268;107568;-83
2024/01/25 02:05:21;;;;;;;7.90;1.90;;;;;;;5.98;86.16;99265.69;130192;1267;109083;-83
2024/01/25 02:08:27;;;;;;;7.00;1.90;;;;;;;5.99;86.06;99270.34;130186;1277;107010;-82
2024/01/25 02:11:32;;;;;;;6.70;1.70;;;;;;;5.96;86.81;99261.67;130212;1267;107617;-83
2024/01/25 02:14:38;;;;;;;6.00;1.80;;;;;;;5.93;87.01;99261.94;130191;1278;106776;-82
2024/01/25 02:17:43;;;;;;;8.10;2.00;;;;;;;5.91;87.18;99256.77;130174;1267;107699;-81
2024/01/25 02:20:49;;;;;;;9.40;2.00;;;;;;;5.90;88.02;99262.89;130191;1264;107731;-84
2024/01/25 02:23:55;;;;;;;8.30;1.60;;;;;;;5.79;88.76;99266.39;130207;1271;109427;-82
2024/01/25 02:27:00;;;;;;;11.60;2.00;;;;;;;5.70;88.90;99251.23;130173;1267;106649;-82
2024/01/25 02:30:08;;;;;;;7.60;2.00;;;;;;;5.66;89.35;99253.73;130054;1277;108741;-82
2024/01/25 02:33:13;;;;;;;6.70;1.80;;;;;;;5.67;88.79;99247.11;130129;1264;107525;-83
2024/01/25 02:36:19;;;;;;;10.00;1.60;;;;;;;5.69;87.82;99250.22;130198;1267;107790;-82
2024/01/25 02:39:24;;;;;;;7.60;1.80;;;;;;;5.69;87.12;99252.08;130208;1264;108650;-84
2024/01/25 02:42:30;;;;;;;9.60;2.00;;;;;;;5.70;87.18;99249.47;130158;1268;107715;-84
2024/01/25 02:45:36;;;;;;;7.70;2.20;;;;;;;5.69;87.08;99252.70;130173;1267;106780;-84
2024/01/25 02:48:41;;;;;;;11.80;2.60;;;;;;;5.72;86.81;99256.52;130247;1267;107625;-84
2024/01/25 02:51:47;;;;;;;7.40;2.00;;;;;;;5.74;86.35;99250.64;130179;1276;108657;-84
2024/01/25 02:54:52;;;;;;;7.30;1.80;;;;;;;5.77;85.80;99252.86;130003;1267;106605;-84
2024/01/25 02:57:58;;;;;;;5.80;1.80;;;;;;;5.77;85.60;99250.15;130145;1268;108768;-84
2024/01/25 03:01:04;;;;;;;6.50;1.60;;;;;;;5.79;85.68;99246.27;130134;1267;107568;-83
2024/01/25 03:04:09;;;;;;;8.90;2.20;;;;;;;5.84;85.26;99253.88;130207;1268;106510;-82
2024/01/25 03:07:15;;;;;;;9.00;2.40;;;;;;;5.88;84.63;99244.49;130224;1267;107786;-82
2024/01/25 03:10:20;;;;;;;8.40;2.00;;;;;;;5.94;84.19;99246.33;130221;1265;107290;-82
2024/01/25 03:13:26;;;;;;;6.50;2.30;;;;;;;5.96;84.30;99241.05;130236;1267;107708;-83
2024/01/25 03:16:32;;;;;;;8.10;2.30;;;;;;;5.95;83.85;99247.23;130190;1267;108190;-82
2024/01/25 03:19:37;;;;;;;9.20;1.90;;;;;;;5.93;83.95;99257.70;130153;1267;106435;-83
2024/01/25 03:22:43;;;;;;;7.20;2.10;;;;;;;5.93;83.47;99264.20;130190;1264;107462;-83
2024/01/25 03:25:48;;;;;;;8.40;1.60;;;;;;;5.92;83.32;99270.11;130136;1268;108510;-83
2024/01/25 03:28:54;;;;;;;9.20;1.90;;;;;;;5.96;83.50;99268.68;130184;1267;106531;-84
2024/01/25 03:31:59;;;;;;;7.60;2.10;;;;;;;5.97;82.90;99257.17;130163;1267;108713;-84
2024/01/25 03:35:06;;;;;;;6.20;1.50;;;;;;;5.95;82.62;99270.38;130156;1268;108737;-83
2024/01/25 03:38:13;;;;;;;7.40;2.00;;;;;;;5.89;82.14;99275.34;130641;1267;106078;-83
2024/01/25 03:41:19;;;;;;;5.90;1.30;;;;;;;5.87;82.37;99271.65;130316;1268;108723;-78
2024/01/25 03:44:25;;;;;;;19.20;7.90;;;;;;;5.87;81.98;99273.79;130701;1267;107804;-78
2024/01/25 03:47:30;;;;;;;53.20;16.50;;;;;;;5.90;83.05;99278.10;129926;1271;182442;-77
2024/01/25 03:50:36;;;;;;;12.60;3.70;;;;;;;5.93;82.60;99270.02;130023;1267;107660;-79
2024/01/25 03:53:42;;;;;;;10.70;3.90;;;;;;;5.91;82.20;99278.35;130064;1275;105751;-77
2024/01/25 03:56:48;;;;;;;14.60;7.60;;;;;;;5.89;82.53;99275.88;130330;1266;107419;-82
2024/01/25 03:59:54;;;;;;;15.60;7.00;;;;;;;5.90;82.37;99273.64;130242;1266;108152;-82
2024/01/25 04:03:00;;;;;;;13.00;3.90;;;;;;;5.90;81.54;99267.14;130474;1267;106486;-81
2024/01/25 04:06:06;;;;;;;9.00;3.00;;;;;;;5.89;82.23;99277.98;130170;1267;108701;-82
2024/01/25 04:09:12;;;;;;;7.20;1.90;;;;;;;5.90;82.04;99273.80;130160;1268;107656;-81
2024/01/25 04:12:17;;;;;;;14.30;5.30;;;;;;;5.87;81.92;99279.27;130195;1264;106773;-82
2024/01/25 04:15:23;;;;;;;7.60;2.50;;;;;;;5.81;81.89;99277.11;130287;1269;107571;-81
2024/01/25 04:18:28;;;;;;;9.40;2.20;;;;;;;5.83;82.24;99289.00;130149;1267;106539;-83
2024/01/25 04:21:34;;;;;;;8.30;2.60;;;;;;;5.82;81.93;99289.92;130117;1268;108620;-81
2024/01/25 04:24:39;;;;;;;13.40;4.20;;;;;;;5.78;82.29;99284.31;130224;1270;107507;-82
2024/01/25 04:27:45;;;;;;;11.50;3.80;;;;;;;5.78;82.92;99288.88;130115;1276;107939;-82
2024/01/25 04:30:51;;;;;;;8.70;2.40;;;;;;;5.77;82.64;99290.41;130173;1268;106699;-82
2024/01/25 04:33:56;;;;;;;48.30;18.50;;;;;;;5.76;82.44;99297.41;130187;1264;107564;-83
2024/01/25 04:37:02;;;;;;;83.10;31.50;;;;;;;5.76;83.24;99294.94;130152;1277;106072;-82
2024/01/25 04:40:09;;;;;;;56.30;19.70;;;;;;;5.77;83.73;99295.34;130184;1278;107956;-82
2024/01/25 04:43:15;;;;;;;26.50;8.10;;;;;;;5.77;83.63;99298.52;130219;1267;106847;-82
2024/01/25 04:46:21;;;;;;;58.10;20.20;;;;;;;5.68;84.67;99300.80;130223;1268;108698;-82
2024/01/25 04:49:26;;;;;;;29.30;9.50;;;;;;;5.61;84.74;99294.05;130175;1267;108730;-82
2024/01/25 04:52:32;;;;;;;114.30;38.00;;;;;;;5.59;84.91;99306.79;130194;1267;106906;-82
2024/01/25 04:55:37;;;;;;;39.80;12.30;;;;;;;5.58;85.49;99295.96;130202;1264;108818;-82
2024/01/25 04:58:43;;;;;;;59.00;18.40;;;;;;;5.57;86.42;99321.05;130014;1267;108280;-81
2024/01/25 05:01:48;;;;;;;210.40;67.20;;;;;;;5.50;87.04;99317.64;130185;1267;108595;-80
2024/01/25 05:04:54;;;;;;;71.50;22.50;;;;;;;5.43;87.18;99311.95;130117;1264;108593;-81
2024/01/25 05:08:00;;;;;;;356.90;115.40;;;;;;;5.44;86.89;99316.49;130036;1272;108615;-81
2024/01/25 05:11:05;;;;;;;108.20;32.50;;;;;;;5.48;86.93;99321.21;130011;1267;108612;-81
2024/01/25 05:14:11;;;;;;;168.80;49.90;;;;;;;5.49;86.97;99321.10;130160;1264;106657;-81
2024/01/25 05:17:16;;;;;;;67.90;21.20;;;;;;;5.48;86.39;99314.34;129998;1270;108377;-81
2024/01/25 05:20:22;;;;;;;137.50;44.20;;;;;;;5.44;86.77;99317.19;129996;1270;107489;-82
2024/01/25 05:23:28;;;;;;;331.70;90.00;;;;;;;5.43;86.61;99318.89;129986;1263;106295;-82
2024/01/25 05:26:33;;;;;;;278.60;63.90;;;;;;;5.47;86.76;99310.30;129981;1269;108676;-81
2024/01/25 05:29:39;;;;;;;243.70;62.30;;;;;;;5.51;86.07;99319.13;130167;1267;107149;-83
2024/01/25 05:32:45;;;;;;;449.80;150.30;;;;;;;5.52;86.01;99320.46;130128;1271;107735;-84
2024/01/25 05:35:51;;;;;;;98.60;24.10;;;;;;;5.47;86.53;99322.67;130079;1264;106456;-83
2024/01/25 05:38:57;;;;;;;56.50;15.90;;;;;;;5.45;86.58;99324.06;130016;1277;106492;-82
2024/01/25 05:42:02;;;;;;;310.90;90.90;;;;;;;5.47;86.57;99320.55;130023;1267;106386;-83
2024/01/25 05:45:09;;;;;;;50.20;14.60;;;;;;;5.52;86.39;99323.66;130047;1264;107731;-82
2024/01/25 05:48:14;;;;;;;101.90;29.40;;;;;;;5.50;86.65;99328.73;130094;1270;108716;-81
2024/01/25 05:51:20;;;;;;;118.50;39.10;;;;;;;5.49;86.72;99328.84;130058;1264;106747;-82
2024/01/25 05:54:26;;;;;;;119.60;41.00;;;;;;;5.48;86.75;99335.30;130463;1268;108115;-80
2024/01/25 05:57:31;;;;;;;41.20;13.50;;;;;;;5.42;87.24;99339.59;129902;1271;107701;-79
2024/01/25 06:00:37;;;;;;;179.60;75.00;;;;;;;5.39;87.71;99332.66;129994;1267;106471;-81
2024/01/25 06:03:42;;;;;;;37.90;18.50;;;;;;;5.41;87.49;99337.25;130023;1269;107785;-79
2024/01/25 06:06:48;;;;;;;14.90;6.30;;;;;;;5.41;87.75;99338.95;130044;1263;107733;-80
2024/01/25 06:09:53;;;;;;;10.90;4.00;;;;;;;5.39;87.65;99341.42;130046;1263;107666;-80
2024/01/25 06:12:59;;;;;;;12.30;4.30;;;;;;;5.39;87.46;99337.89;130097;1270;108662;-81
2024/01/25 06:16:06;;;;;;;10.70;3.80;;;;;;;5.39;87.50;99346.95;130051;1264;107652;-79
2024/01/25 06:19:11;;;;;;;19.50;10.40;;;;;;;5.37;87.47;99349.34;130088;1270;108712;-79
2024/01/25 06:22:17;;;;;;;220.60;77.90;;;;;;;5.42;87.53;99350.89;129968;1270;107806;-81
2024/01/25 06:25:23;;;;;;;50.00;15.60;;;;;;;5.43;87.72;99349.52;129988;1267;105774;-80
2024/01/25 06:28:29;;;;;;;79.00;21.10;;;;;;;5.39;87.52;99360.17;129974;1264;108592;-80
2024/01/25 06:31:40;;;;;;;20.50;6.50;;;;;;;5.35;87.68;99358.02;129949;1264;108766;-81
2024/01/25 06:34:46;;;;;;;43.40;12.70;;;;;;;5.33;88.02;99351.52;129982;1264;108742;-81
2024/01/25 06:37:51;;;;;;;177.60;54.90;;;;;;;5.36;88.20;99346.86;130039;1269;106693;-80
2024/01/25 06:40:57;;;;;;;191.00;48.20;;;;;;;5.40;87.89;99351.03;130033;1270;108522;-80
2024/01/25 06:44:02;;;;;;;112.90;31.90;;;;;;;5.38;88.22;99352.29;129986;1270;108668;-80
2024/01/25 06:47:08;;;;;;;95.60;26.30;;;;;;;5.32;88.67;99360.09;129978;1264;108700;-81
2024/01/25 06:50:14;;;;;;;15.90;4.40;;;;;;;5.27;89.53;99360.71;130103;1269;108814;-81
2024/01/25 06:53:20;;;;;;;39.30;10.50;;;;;;;5.25;89.06;99362.27;130027;1270;106827;-85
2024/01/25 06:56:26;;;;;;;45.10;14.80;;;;;;;5.24;89.62;99365.62;130082;1277;107727;-80
2024/01/25 06:59:31;;;;;;;22.90;8.10;;;;;;;5.21;89.58;99356.46;130097;1264;108431;-80
2024/01/25 07:02:37;;;;;;;142.10;59.80;;;;;;;5.22;89.96;99363.77;130125;1263;106691;-80
2024/01/25 07:05:42;;;;;;;181.20;73.00;;;;;;;5.32;89.68;99369.28;130080;1269;107836;-80
2024/01/25 07:08:48;;;;;;;93.30;34.90;;;;;;;5.36;89.47;99355.00;130053;1269;107760;-80
2024/01/25 07:11:54;;;;;;;71.90;29.30;;;;;;;5.39;89.05;99354.02;130053;1270;107788;-80
2024/01/25 07:15:00;;;;;;;50.40;24.80;;;;;;;5.43;88.93;99362.64;129883;1270;108723;-82
2024/01/25 07:18:06;;;;;;;28.50;10.40;;;;;;;5.46;89.13;99373.96;130082;1270;108397;-81
2024/01/25 07:21:11;;;;;;;53.70;23.90;;;;;;;5.51;88.78;99365.94;130094;1270;108892;-81
2024/01/25 07:24:17;;;;;;;73.90;37.10;;;;;;;5.54;88.20;99365.27;130081;1263;107666;-81
2024/01/25 07:27:23;;;;;;;65.80;29.30;;;;;;;5.57;87.90;99372.12;130122;1263;105855;-80
2024/01/25 07:30:28;;;;;;;17.40;6.50;;;;;;;5.55;87.89;99366.94;130086;1270;107557;-80
2024/01/25 07:33:34;;;;;;;20.10;9.80;;;;;;;5.58;87.92;99378.36;130074;1264;108739;-80
2024/01/25 07:36:39;;;;;;;11.00;4.60;;;;;;;5.61;87.76;99374.23;130045;1264;107465;-80
2024/01/25 07:39:45;;;;;;;104.00;66.50;;;;;;;5.63;88.12;99379.09;130065;1269;107125;-80
2024/01/25 07:42:51;;;;;;;13.60;4.40;;;;;;;5.67;88.43;99382.66;130117;1270;107672;-80
2024/01/25 07:45:56;;;;;;;17.10;8.80;;;;;;;5.62;88.45;99387.70;130090;1264;107140;-80
2024/01/25 07:49:02;;;;;;;8.20;3.10;;;;;;;5.56;88.79;99396.29;130111;1270;107729;-80
2024/01/25 07:52:07;;;;;;;8.80;2.10;;;;;;;5.51;89.18;99396.38;130011;1269;107737;-80
2024/01/25 07:55:13;;;;;;;9.70;2.80;;;;;;;5.52;89.21;99397.20;130074;1270;108775;-80
2024/01/25 07:58:19;;;;;;;8.50;3.70;;;;;;;5.50;89.12;99404.44;129902;1270;107670;-80
2024/01/25 08:01:25;;;;;;;8.10;3.70;;;;;;;5.49;89.04;99399.92;129819;1267;108708;-80
2024/01/25 08:04:31;;;;;;;6.30;2.40;;;;;;;5.54;88.98;99405.35;129887;1264;108357;-81
2024/01/25 08:07:38;;;;;;;7.00;2.10;;;;;;;5.58;89.04;99408.13;130160;1268;107677;-81
2024/01/25 08:10:45;;;;;;;5.80;2.20;;;;;;;5.57;89.54;99420.81;130053;1267;107066;-81
2024/01/25 08:13:51;;;;;;;7.50;2.00;;;;;;;5.47;90.31;99416.02;130079;1264;108667;-80
2024/01/25 08:16:57;;;;;;;5.70;1.60;;;;;;;5.36;90.75;99430.77;130177;1267;107795;-82
2024/01/25 08:20:05;;;;;;;71.40;25.30;;;;;;;5.33;90.63;99433.18;130176;1266;108569;-81
2024/01/25 08:23:11;;;;;;;59.20;23.00;;;;;;;5.34;90.89;99431.02;130110;1266;108603;-80
2024/01/25 08:26:17;;;;;;;13.80;3.90;;;;;;;5.30;91.37;99435.05;130166;1267;107739;-81
2024/01/25 08:29:22;;;;;;;7.70;3.10;;;;;;;5.25;91.77;99438.65;130240;1264;107546;-80
2024/01/25 08:32:28;;;;;;;20.20;12.40;;;;;;;5.21;92.08;99434.09;130084;1264;109114;-81
2024/01/25 08:35:44;;;;;;;;;;;;;;;;;;;;;
2024/01/25 08:38:51;;;;;;;15.90;9.40;;;;;;;5.23;92.99;99452.36;130194;1264;107867;-81
2024/01/25 08:42:01;;;;;;;20.00;12.00;;;;;;;5.25;92.65;99454.35;130007;1268;108777;-82
2024/01/25 08:45:09;;;;;;;7.30;3.00;;;;;;;5.31;92.49;99459.30;130173;1264;108475;-83
2024/01/25 08:48:15;;;;;;;7.30;2.00;;;;;;;5.35;92.38;99458.06;130193;1267;107704;-82
2024/01/25 08:51:20;;;;;;;5.10;2.00;;;;;;;5.35;92.74;99463.18;130197;1267;106398;-81
2024/01/25 08:54:26;;;;;;;4.60;1.80;;;;;;;5.33;93.14;99471.64;130118;1263;107507;-79
2024/01/25 08:57:31;;;;;;;4.70;2.20;;;;;;;5.32;93.21;99470.80;130093;1267;109010;-80
2024/01/25 09:00:37;;;;;;;6.60;2.50;;;;;;;5.39;92.75;99470.75;129966;1265;107106;-80
2024/01/25 09:03:42;;;;;;;15.10;6.90;;;;;;;5.50;92.68;99478.55;129963;1267;106455;-82
2024/01/25 09:06:48;;;;;;;16.70;7.20;;;;;;;5.55;92.25;99480.21;130199;1264;107674;-81
2024/01/25 09:09:53;;;;;;;11.70;4.80;;;;;;;5.53;92.70;99486.78;130156;1267;107078;-81
2024/01/25 09:12:59;;;;;;;51.30;20.40;;;;;;;5.54;92.99;99496.38;130084;1266;108655;-82
2024/01/25 09:16:05;;;;;;;17.50;6.60;;;;;;;5.51;93.41;99500.69;130049;1265;106738;-81
2024/01/25 09:19:13;;;;;;;29.10;10.20;;;;;;;5.50;93.32;99497.60;130126;1265;106636;-82
2024/01/25 09:22:20;;;;;;;114.60;36.60;;;;;;;5.48;93.39;99510.33;130034;1267;108334;-82
2024/01/25 09:25:25;;;;;;;127.70;41.70;;;;;;;5.49;93.35;99515.34;130147;1267;107835;-81
2024/01/25 09:28:31;;;;;;;27.20;9.00;;;;;;;5.49;93.60;99525.59;130223;1264;107668;-81
2024/01/25 09:31:36;;;;;;;126.50;41.80;;;;;;;5.41;94.38;99533.80;130171;1267;107916;-81
2024/01/25 09:34:42;;;;;;;53.40;18.60;;;;;;;5.37;94.42;99533.88;130158;1266;107073;-81
2024/01/25 09:37:48;;;;;;;83.30;30.10;;;;;;;5.37;94.38;99541.31;130177;1285;106580;-81
2024/01/25 09:40:54;;;;;;;37.20;15.90;;;;;;;5.39;94.37;99546.02;130151;1267;107626;-80
2024/01/25 09:43:59;;;;;;;12.30;4.50;;;;;;;5.40;94.39;99557.39;130217;1264;105905;-81
2024/01/25 09:47:07;;;;;;;24.10;9.00;;;;;;;5.36;95.10;99563.90;130149;1267;107691;-80
2024/01/25 09:50:13;;;;;;;10.30;3.90;;;;;;;5.26;95.58;99564.14;130092;1264;108795;-80
2024/01/25 09:53:24;;;;;;;8.10;3.20;;;;;;;5.24;95.71;99568.89;130011;1264;108252;-81
2024/01/25 09:56:34;;;;;;;61.80;27.90;;;;;;;5.28;95.69;99569.42;130178;1264;108507;-81
2024/01/25 09:59:39;;;;;;;11.70;5.40;;;;;;;5.29;95.74;99580.42;130187;1267;107646;-81
2024/01/25 10:02:45;;;;;;;8.10;3.20;;;;;;;5.33;96.00;99584.33;129952;1264;106663;-81
2024/01/25 10:05:50;;;;;;;18.60;8.20;;;;;;;5.31;96.39;99577.08;130052;1266;108761;-81
2024/01/25 10:08:56;;;;;;;7.80;3.00;;;;;;;5.35;96.90;99585.57;130056;1270;107800;-79
2024/01/25 10:12:02;;;;;;;9.60;3.90;;;;;;;5.31;97.37;99591.68;130053;1264;106836;-81
2024/01/25 10:15:09;;;;;;;6.40;3.00;;;;;;;5.30;97.43;99587.25;130114;1269;108493;-81
2024/01/25 10:18:15;;;;;;;6.10;2.50;;;;;;;5.27;98.17;99593.30;130117;1265;108537;-80
2024/01/25 10:21:21;;;;;;;7.20;3.70;;;;;;;5.25;98.88;99600.74;130092;1264;106838;-80
2024/01/25 10:24:26;;;;;;;4.80;1.90;;;;;;;5.19;98.74;99609.17;130062;1270;106944;-80
2024/01/25 10:27:32;;;;;;;4.60;1.60;;;;;;;5.13;99.44;99615.18;130107;1269;108323;-80
2024/01/25 10:30:38;;;;;;;3.80;1.90;;;;;;;5.13;99.10;99616.38;130066;1263;108681;-82
2024/01/25 10:33:46;;;;;;;5.30;2.00;;;;;;;5.12;99.99;99615.10;130105;1270;107864;-80
2024/01/25 10:36:52;;;;;;;5.50;2.10;;;;;;;5.08;99.85;99618.27;130082;1270;107220;-80
2024/01/25 10:39:58;;;;;;;3.10;1.60;;;;;;;5.09;99.96;99622.55;129834;1263;107223;-80
2024/01/25 10:43:06;;;;;;;5.50;1.80;;;;;;;5.13;100.00;99634.20;129985;1267;108597;-81
2024/01/25 10:46:12;;;;;;;4.50;1.90;;;;;;;5.16;100.00;99633.98;130103;1270;108592;-82
2024/01/25 10:49:19;;;;;;;4.60;1.80;;;;;;;5.20;100.00;99636.98;130100;1268;107752;-81
2024/01/25 10:52:26;;;;;;;4.70;1.90;;;;;;;5.16;100.00;99641.39;130053;1267;107147;-80
2024/01/25 10:55:32;;;;;;;6.10;2.50;;;;;;;5.16;100.00;99635.05;130092;1264;107702;-80
2024/01/25 10:58:41;;;;;;;3.80;2.10;;;;;;;5.22;100.00;99642.42;130079;1263;107455;-79
2024/01/25 11:01:48;;;;;;;5.60;2.90;;;;;;;5.23;100.00;99641.64;130068;1270;107902;-81
2024/01/25 11:04:57;;;;;;;8.70;3.90;;;;;;;5.19;100.00;99649.70;130023;1264;108421;-81
2024/01/25 11:08:02;;;;;;;12.60;4.70;;;;;;;5.23;100.00;99650.83;129979;1265;106752;-81
2024/01/25 11:11:10;;;;;;;64.70;25.90;;;;;;;5.32;100.00;99651.41;130028;1264;107800;-81
2024/01/25 11:14:17;;;;;;;32.60;12.40;;;;;;;5.32;99.98;99653.52;130099;1264;107688;-82
2024/01/25 11:17:24;;;;;;;16.10;6.30;;;;;;;5.40;99.87;99657.46;130032;1264;106214;-81
2024/01/25 11:20:31;;;;;;;17.10;6.60;;;;;;;5.36;100.00;99661.48;130093;1264;106134;-81
2024/01/25 11:23:37;;;;;;;39.60;13.60;;;;;;;5.31;100.00;99664.53;130082;1267;107667;-81
2024/01/25 11:26:43;;;;;;;10.80;4.10;;;;;;;5.31;100.00;99668.95;129931;1270;108648;-82
2024/01/25 11:29:49;;;;;;;28.40;10.90;;;;;;;5.23;100.00;99677.45;130077;1264;107855;-81
2024/01/25 11:32:54;;;;;;;107.50;40.30;;;;;;;5.21;100.00;99681.16;130137;1267;107807;-80
2024/01/25 11:36:00;;;;;;;361.50;294.00;;;;;;;5.19;100.00;99689.62;130075;1268;107428;-80
2024/01/25 11:39:06;;;;;;;6.50;3.90;;;;;;;5.16;100.00;99691.58;129959;1263;108405;-83
2024/01/25 11:42:12;;;;;;;11.10;4.30;;;;;;;5.08;100.00;99696.30;130023;1265;108800;-80
2024/01/25 11:45:18;;;;;;;35.40;16.80;;;;;;;5.09;100.00;99690.21;130059;1263;108444;-81
2024/01/25 11:48:24;;;;;;;16.00;7.30;;;;;;;5.15;100.00;99695.25;130078;1264;107753;-81
2024/01/25 11:51:29;;;;;;;27.40;10.80;;;;;;;5.13;100.00;99695.24;130069;1267;108429;-81
2024/01/25 11:54:35;;;;;;;96.80;37.40;;;;;;;5.12;100.00;99699.55;130027;1264;108540;-80
2024/01/25 11:57:42;;;;;;;6.10;3.40;;;;;;;5.11;100.00;99704.20;130038;1270;107669;-81
2024/01/25 12:00:48;;;;;;;7.30;4.70;;;;;;;5.07;100.00;99708.88;130290;1264;108530;-80
2024/01/25 12:03:54;;;;;;;8.10;5.90;;;;;;;5.01;100.00;99715.95;130270;1264;107162;-80
2024/01/25 12:07:00;;;;;;;53.40;23.50;;;;;;;4.96;100.00;99715.11;130327;1267;108293;-79
2024/01/25 12:10:07;;;;;;;57.00;23.60;;;;;;;4.98;100.00;99715.70;129853;1264;108889;-81
2024/01/25 12:13:13;;;;;;;7.70;4.60;;;;;;;5.02;100.00;99726.66;130212;1266;107915;-80
2024/01/25 12:16:19;;;;;;;11.20;5.10;;;;;;;5.02;100.00;99721.68;130128;1266;108707;-81
2024/01/25 12:19:24;;;;;;;8.10;2.80;;;;;;;5.04;100.00;99725.73;130140;1266;107635;-82
2024/01/25 12:22:31;;;;;;;14.60;6.30;;;;;;;5.08;100.00;99726.95;130163;1267;106933;-81
2024/01/25 12:25:41;;;;;;;82.30;35.40;;;;;;;5.10;100.00;99731.95;130190;1267;107409;-81
2024/01/25 12:28:49;;;;;;;31.60;15.40;;;;;;;5.14;100.00;99732.14;130193;1264;107776;-81
2024/01/25 12:31:55;;;;;;;145.70;61.40;;;;;;;5.17;100.00;99744.81;130129;1266;108618;-80
2024/01/25 12:35:01;;;;;;;64.40;29.30;;;;;;;5.19;100.00;99738.80;130125;1267;108461;-80
2024/01/25 12:38:09;;;;;;;20.20;11.80;;;;;;;5.24;100.00;99741.16;130159;1266;107708;-80
2024/01/25 12:41:14;;;;;;;21.20;14.20;;;;;;;5.32;100.00;99742.23;130098;1267;108412;-80
2024/01/25 12:44:20;;;;;;;11.50;7.30;;;;;;;5.34;100.00;99751.75;130123;1266;108411;-80
2024/01/25 12:47:26;;;;;;;8.70;5.40;;;;;;;5.38;100.00;99756.15;130047;1266;108760;-80
2024/01/25 12:50:31;;;;;;;6.20;3.70;;;;;;;5.40;100.00;99761.15;130004;1265;107717;-81
2024/01/25 12:53:37;;;;;;;12.50;8.50;;;;;;;5.41;100.00;99763.90;129930;1264;107679;-81
2024/01/25 12:56:43;;;;;;;6.10;3.30;;;;;;;5.38;100.00;99773.79;129896;1267;108625;-81
2024/01/25 12:59:49;;;;;;;20.20;12.60;;;;;;;5.35;100.00;99780.46;129892;1267;108088;-80
2024/01/25 13:02:56;;;;;;;13.60;7.10;;;;;;;5.34;100.00;99791.23;130134;1264;106335;-80
2024/01/25 13:06:03;;;;;;;13.70;8.00;;;;;;;5.29;100.00;99785.36;130088;1267;108735;-81
2024/01/25 13:09:08;;;;;;;8.90;4.00;;;;;;;5.25;100.00;99783.53;130125;1267;107934;-82
2024/01/25 13:12:14;;;;;;;9.10;4.60;;;;;;;5.23;100.00;99785.11;130074;1267;108769;-80
2024/01/25 13:15:20;;;;;;;9.10;5.70;;;;;;;5.19;100.00;99785.50;130059;1267;107609;-81
2024/01/25 13:18:26;;;;;;;8.50;5.00;;;;;;;5.23;100.00;99788.00;130117;1264;105694;-82
2024/01/25 13:21:31;;;;;;;15.90;9.80;;;;;;;5.22;99.93;99787.00;130043;1264;108810;-81
2024/01/25 13:24:37;;;;;;;13.80;8.50;;;;;;;5.22;99.97;99791.23;130344;1264;106936;-79
2024/01/25 13:27:43;;;;;;;10.00;5.40;;;;;;;5.22;99.72;99797.55;130159;1267;106938;-79
2024/01/25 13:30:48;;;;;;;7.50;4.30;;;;;;;5.15;99.47;99807.88;130212;1264;108774;-80
2024/01/25 13:33:54;;;;;;;7.60;3.40;;;;;;;5.13;99.41;99802.23;130328;1264;108671;-81
2024/01/25 13:36:59;;;;;;;19.00;11.50;;;;;;;5.16;99.31;99809.73;130031;1267;106974;-80
2024/01/25 13:40:06;;;;;;;10.10;5.30;;;;;;;5.16;99.42;99817.84;130109;1263;107798;-80
2024/01/25 13:43:12;;;;;;;10.30;5.10;;;;;;;5.16;99.35;99817.13;130083;1265;106420;-80
2024/01/25 13:46:18;;;;;;;23.00;14.80;;;;;;;5.17;99.45;99820.43;130034;1263;108253;-80
2024/01/25 13:49:24;;;;;;;10.00;4.90;;;;;;;5.19;99.32;99818.86;130099;1267;109076;-80
2024/01/25 13:52:29;;;;;;;16.70;10.30;;;;;;;5.21;99.57;99823.60;130078;1267;108702;-80
2024/01/25 13:55:35;;;;;;;8.60;3.80;;;;;;;5.18;99.55;99818.73;130111;1267;107686;-82
2024/01/25 13:58:40;;;;;;;36.90;19.70;;;;;;;5.17;99.67;99832.77;130152;1264;107169;-82
2024/01/25 14:01:46;;;;;;;21.70;11.40;;;;;;;5.14;99.66;99836.70;130056;1267;107741;-83
2024/01/25 14:04:51;;;;;;;10.00;5.90;;;;;;;5.15;99.81;99843.30;130135;1268;108731;-83
2024/01/25 14:07:57;;;;;;;16.70;8.30;;;;;;;5.10;99.96;99843.88;130055;1267;106454;-81
2024/01/25 14:11:02;;;;;;;10.50;4.90;;;;;;;5.07;100.00;99852.43;130054;1264;106226;-82
2024/01/25 14:14:08;;;;;;;19.50;12.20;;;;;;;4.98;100.00;99857.42;130056;1264;106395;-81